Time;durP1;ratioP1;P1;durP2;ratioP2;P2;SDS_P1;SDS_P2;PMS_P1;PMS_P2;Temp;Humidity;BMP_temperature;BMP_pressure;BME280_temperature;BME280_humidity;BME280_pressure;Samples;Min_cycle;Max_cycle;Signal;HPM_P1;HPM_P2
2021/08/01 00:01:05;;;;;;;12.90;8.83;;;;;;;19.31;77.75;99884.86;1429491;91;21405;-82
2021/08/01 00:03:32;;;;;;;14.03;9.53;;;;;;;19.29;78.59;99882.38;1430078;91;21545;-82
2021/08/01 00:05:58;;;;;;;10.93;9.77;;;;;;;19.31;78.31;99881.66;1429450;90;21596;-82
2021/08/01 00:08:24;;;;;;;13.47;9.10;;;;;;;19.31;77.64;99883.00;1442330;90;21459;-82
2021/08/01 00:10:54;;;;;;;17.47;9.37;;;;;;;19.27;76.86;99884.98;1426083;91;21467;-82
2021/08/01 00:13:20;;;;;;;10.70;9.07;;;;;;;19.20;76.87;99886.37;1443248;90;22079;-82
2021/08/01 00:15:46;;;;;;;10.67;9.20;;;;;;;19.16;76.79;99889.17;1431643;90;21457;-81
2021/08/01 00:18:12;;;;;;;16.20;9.97;;;;;;;19.13;77.25;99884.24;1435922;89;21420;-82
2021/08/01 00:20:40;;;;;;;14.90;9.53;;;;;;;19.14;77.27;99884.56;1433866;90;21557;-81
2021/08/01 00:23:06;;;;;;;15.07;7.57;;;;;;;19.12;77.69;99883.95;1443502;89;22314;-82
2021/08/01 00:25:33;;;;;;;9.03;8.13;;;;;;;19.10;77.94;99880.16;1442056;89;21390;-81
2021/08/01 00:27:59;;;;;;;16.57;8.97;;;;;;;19.10;78.29;99880.66;1431155;89;21507;-81
2021/08/01 00:30:25;;;;;;;11.63;8.70;;;;;;;19.10;78.04;99884.19;1441872;89;21506;-81
2021/08/01 00:32:51;;;;;;;13.00;10.17;;;;;;;19.10;77.88;99886.02;1433733;90;21387;-82
2021/08/01 00:35:20;;;;;;;10.03;8.17;;;;;;;19.09;78.19;99887.89;1436118;90;22395;-81
2021/08/01 00:37:46;;;;;;;15.13;9.50;;;;;;;19.10;78.00;99876.63;1436905;89;23423;-82
2021/08/01 00:40:13;;;;;;;16.27;9.57;;;;;;;19.11;77.79;99875.61;1438456;90;21451;-82
2021/08/01 00:42:45;;;;;;;18.00;10.73;;;;;;;19.07;77.25;99873.05;1444110;90;21512;-81
2021/08/01 00:45:13;;;;;;;13.97;10.00;;;;;;;18.97;77.34;99874.05;1440516;88;21391;-81
2021/08/01 00:47:42;;;;;;;23.40;11.13;;;;;;;18.90;78.19;99873.58;1433311;90;22361;-81
2021/08/01 00:50:11;;;;;;;12.03;10.77;;;;;;;18.91;78.84;99879.23;1441619;88;22506;-82
2021/08/01 00:52:38;;;;;;;12.23;10.00;;;;;;;18.89;79.61;99881.30;1442471;89;21705;-82
2021/08/01 00:55:08;;;;;;;11.33;8.87;;;;;;;18.91;79.38;99877.08;1446415;88;21518;-83
2021/08/01 00:57:35;;;;;;;12.03;10.20;;;;;;;18.92;79.17;99868.80;1435667;91;21327;-83
2021/08/01 01:00:02;;;;;;;11.93;9.93;;;;;;;18.93;79.18;99871.81;1440282;89;22496;-83
2021/08/01 01:02:37;;;;;;;14.33;9.57;;;;;;;18.93;78.96;99866.45;1451205;88;21449;-84
2021/08/01 01:05:27;;;;;;;14.00;9.60;;;;;;;18.94;79.05;99864.58;1440651;90;21626;-83
2021/08/01 01:08:25;;;;;;;16.47;10.57;;;;;;;18.92;78.86;99861.28;1430437;91;21415;-83
2021/08/01 01:10:54;;;;;;;11.60;10.17;;;;;;;18.87;78.63;99867.31;1429845;91;21580;-83
2021/08/01 01:13:29;;;;;;;10.57;9.10;;;;;;;18.86;79.62;99865.65;1426706;90;23623;-82
2021/08/01 01:18:51;;;;;;;;;;;;;;;18.84;78.61;99850.28;1412616;90;21385;-83
2021/08/01 01:21:41;;;;;;;16.33;10.67;;;;;;;18.78;78.33;99847.13;1433793;90;20350;-82
2021/08/01 01:24:29;;;;;;;13.95;12.13;;;;;;;18.73;78.04;99848.29;1441888;90;21616;-83
2021/08/01 01:27:22;;;;;;;11.77;10.33;;;;;;;18.65;78.08;99841.83;1431604;91;21422;-83
2021/08/01 01:30:01;;;;;;;11.30;10.03;;;;;;;18.59;79.13;99852.08;1442690;90;21436;-82
2021/08/01 01:32:53;;;;;;;10.60;9.57;;;;;;;18.57;79.97;99852.27;1438776;90;21454;-82
2021/08/01 01:35:37;;;;;;;11.80;9.63;;;;;;;18.57;79.56;99844.76;1427383;89;21538;-82
2021/08/01 01:38:07;;;;;;;11.00;9.67;;;;;;;18.57;79.55;99844.76;1438063;88;22098;-83
2021/08/01 01:40:34;;;;;;;;;;;;;;;18.58;79.38;99848.55;1443646;89;23579;-84
2021/08/01 01:43:02;;;;;;;13.83;9.47;;;;;;;18.58;79.54;99835.67;1427739;89;20350;-83
2021/08/01 01:45:30;;;;;;;10.73;9.07;;;;;;;18.55;78.64;99826.20;1425612;89;21560;-83
2021/08/01 01:50:57;;;;;;;17.90;10.07;;;;;;;18.49;79.54;99831.89;1504243;85;22604;-80
2021/08/01 01:53:24;;;;;;;11.93;10.60;;;;;;;18.44;78.94;99838.44;1475035;87;21605;-81
2021/08/01 01:55:51;;;;;;;15.83;12.37;;;;;;;18.41;79.17;99835.34;1469018;87;22440;-81
2021/08/01 01:58:17;;;;;;;11.40;9.90;;;;;;;18.41;79.24;99838.86;1473147;87;23474;-82
2021/08/01 02:00:46;;;;;;;19.67;10.07;;;;;;;18.42;79.40;99847.19;1463696;87;22599;-81
2021/08/01 02:03:12;;;;;;;16.40;10.00;;;;;;;18.43;79.26;99847.48;1466608;87;21575;-81
2021/08/01 02:05:42;;;;;;;11.23;9.47;;;;;;;18.47;79.03;99840.69;1447855;87;21899;-81
2021/08/01 02:08:08;;;;;;;11.08;9.88;;;;;;;18.51;79.04;99840.26;1469157;87;21426;-81
2021/08/01 02:10:46;;;;;;;13.87;9.50;;;;;;;18.53;79.11;99841.69;1480125;88;21731;-81
2021/08/01 02:13:15;;;;;;;15.20;9.30;;;;;;;18.54;79.31;99851.36;1466975;88;21531;-81
2021/08/01 02:15:51;;;;;;;14.17;10.37;;;;;;;18.56;79.49;99856.49;1468722;87;21590;-82
2021/08/01 02:18:32;;;;;;;11.10;9.20;;;;;;;18.54;78.75;99862.61;1456526;88;21531;-81
2021/08/01 02:21:00;;;;;;;12.10;9.77;;;;;;;18.49;78.52;99861.37;1465700;87;21697;-80
2021/08/01 02:23:31;;;;;;;9.23;8.33;;;;;;;18.45;78.39;99858.82;1448021;88;21509;-82
2021/08/01 02:25:58;;;;;;;21.00;9.70;;;;;;;18.40;78.64;99865.33;1470515;87;21591;-81
2021/08/01 02:28:28;;;;;;;10.77;9.67;;;;;;;18.35;79.25;99872.36;1460908;88;21657;-83
2021/08/01 02:30:57;;;;;;;9.65;8.73;;;;;;;18.34;78.92;99874.22;1482246;88;21656;-82
2021/08/01 02:33:28;;;;;;;16.00;8.17;;;;;;;18.32;79.23;99872.26;1471162;88;21746;-82
2021/08/01 02:36:02;;;;;;;10.20;7.77;;;;;;;18.31;78.43;99862.59;1463948;88;21792;-81
2021/08/01 02:38:30;;;;;;;12.07;8.33;;;;;;;18.22;77.98;99861.19;1465837;87;21664;-82
2021/08/01 02:41:00;;;;;;;9.83;7.37;;;;;;;18.13;78.47;99875.84;1469444;88;21516;-81
2021/08/01 02:43:30;;;;;;;8.73;7.87;;;;;;;17.98;79.07;99879.59;1467493;88;22418;-81
2021/08/01 02:45:57;;;;;;;10.48;8.85;;;;;;;17.98;79.07;99879.59;1465366;88;21488;-82
2021/08/01 02:48:25;;;;;;;8.03;7.00;;;;;;;17.98;79.53;99884.09;1461306;88;22485;-82
2021/08/01 02:50:57;;;;;;;10.70;7.60;;;;;;;17.97;80.03;99893.98;1472202;88;21597;-81
2021/08/01 02:53:25;;;;;;;8.97;8.03;;;;;;;17.93;79.08;99895.45;1458481;87;21629;-82
2021/08/01 02:55:53;;;;;;;8.97;7.97;;;;;;;17.85;79.41;99897.00;1465675;88;21672;-81
2021/08/01 02:58:20;;;;;;;10.40;9.23;;;;;;;17.81;79.28;99897.94;1464136;88;21734;-82
2021/08/01 03:00:47;;;;;;;11.37;8.80;;;;;;;17.78;79.96;99904.20;1482393;88;21509;-81
2021/08/01 03:03:16;;;;;;;10.17;8.20;;;;;;;17.80;80.20;99894.94;1462785;88;21746;-82
2021/08/01 03:05:44;;;;;;;9.83;8.83;;;;;;;17.81;80.84;99892.58;1467030;87;22639;-83
2021/08/01 03:08:14;;;;;;;11.60;8.90;;;;;;;17.86;80.10;99885.25;1464340;88;21590;-81
2021/08/01 03:10:45;;;;;;;14.25;9.75;;;;;;;17.90;80.02;99887.83;1451965;88;21569;-81
2021/08/01 03:13:12;;;;;;;13.40;10.03;;;;;;;17.89;79.51;99878.66;1466635;88;21532;-81
2021/08/01 03:15:39;;;;;;;12.17;10.87;;;;;;;17.86;79.35;99878.55;1463191;87;21501;-82
2021/08/01 03:18:05;;;;;;;13.43;11.27;;;;;;;17.83;79.70;99876.30;1464224;88;21496;-81
2021/08/01 03:20:32;;;;;;;17.37;11.63;;;;;;;17.83;79.27;99878.98;1446095;88;21650;-81
2021/08/01 03:22:58;;;;;;;13.33;9.73;;;;;;;17.83;80.08;99887.00;1462502;88;21509;-81
2021/08/01 03:25:24;;;;;;;11.83;9.73;;;;;;;17.82;79.96;99888.05;1449971;87;21502;-82
2021/08/01 03:27:50;;;;;;;9.70;8.70;;;;;;;17.82;80.84;99893.41;1455214;87;21626;-81
2021/08/01 03:30:17;;;;;;;12.47;10.67;;;;;;;17.88;80.17;99905.13;1468174;88;21604;-81
2021/08/01 03:32:43;;;;;;;15.47;9.67;;;;;;;17.93;80.01;99901.33;1450911;88;21450;-81
2021/08/01 03:35:10;;;;;;;12.90;9.00;;;;;;;17.86;79.89;99897.30;1457034;87;21627;-81
2021/08/01 03:37:36;;;;;;;10.90;8.87;;;;;;;17.81;79.88;99883.73;1441510;88;21473;-82
2021/08/01 03:40:03;;;;;;;10.03;8.63;;;;;;;17.84;80.01;99879.79;1486471;87;22092;-82
2021/08/01 03:42:30;;;;;;;9.00;7.37;;;;;;;17.88;79.84;99881.86;1464719;87;21508;-82
2021/08/01 03:44:56;;;;;;;9.47;7.97;;;;;;;17.94;80.06;99881.02;1475995;88;21714;-82
2021/08/01 03:47:22;;;;;;;11.87;8.60;;;;;;;17.97;79.88;99879.26;1452946;88;21495;-81
2021/08/01 03:49:48;;;;;;;9.30;8.40;;;;;;;18.00;79.61;99881.52;1462327;88;21634;-81
2021/08/01 03:52:14;;;;;;;10.93;8.60;;;;;;;18.03;79.30;99883.77;1472066;88;21391;-82
2021/08/01 03:54:41;;;;;;;18.03;8.77;;;;;;;18.01;78.89;99875.15;1457757;88;23369;-81
2021/08/01 03:57:07;;;;;;;10.90;8.90;;;;;;;18.00;79.00;99888.20;1447946;88;22368;-81
2021/08/01 03:59:36;;;;;;;10.43;9.07;;;;;;;18.01;78.77;99895.23;1465603;88;21623;-81
2021/08/01 04:02:04;;;;;;;12.90;8.90;;;;;;;18.03;79.34;99898.50;1456317;88;21951;-82
2021/08/01 04:04:30;;;;;;;8.60;7.50;;;;;;;18.10;79.42;99893.67;1467932;88;21502;-81
2021/08/01 04:06:56;;;;;;;10.70;7.60;;;;;;;18.13;79.38;99878.52;1448676;88;21515;-81
2021/08/01 04:09:22;;;;;;;13.50;9.17;;;;;;;18.16;79.05;99890.97;1464903;88;22722;-81
2021/08/01 04:11:49;;;;;;;13.30;10.40;;;;;;;18.18;79.01;99892.93;1464859;88;22831;-82
2021/08/01 04:14:15;;;;;;;16.07;10.53;;;;;;;18.23;79.01;99890.42;1466931;88;21656;-82
2021/08/01 04:16:41;;;;;;;40.07;12.60;;;;;;;18.28;79.02;99896.50;1464626;88;21619;-82
2021/08/01 04:19:09;;;;;;;11.63;9.90;;;;;;;18.33;79.51;99898.55;1458826;88;21509;-82
2021/08/01 04:21:38;;;;;;;12.40;8.93;;;;;;;18.39;79.39;99895.03;1466777;87;21509;-81
2021/08/01 04:24:05;;;;;;;16.93;11.17;;;;;;;18.46;79.43;99895.81;1465015;88;21472;-81
2021/08/01 04:26:31;;;;;;;12.67;10.87;;;;;;;18.49;79.31;99897.55;1474570;88;22401;-82
2021/08/01 04:28:58;;;;;;;15.07;9.87;;;;;;;18.54;79.13;99892.08;1473986;87;22076;-81
2021/08/01 04:31:25;;;;;;;13.37;10.63;;;;;;;18.60;79.19;99889.36;1469846;88;21605;-81
2021/08/01 04:33:51;;;;;;;13.87;11.40;;;;;;;18.65;79.38;99888.21;1455098;87;21481;-82
2021/08/01 04:36:18;;;;;;;12.33;10.83;;;;;;;18.69;79.40;99886.73;1452360;88;21826;-81
2021/08/01 04:38:44;;;;;;;13.63;9.33;;;;;;;18.78;79.60;99879.30;1467669;88;23513;-82
2021/08/01 04:41:10;;;;;;;11.18;9.85;;;;;;;18.83;79.81;99876.80;1464121;88;23822;-81
2021/08/01 04:43:36;;;;;;;15.20;10.90;;;;;;;18.87;79.47;99878.03;1470726;88;22551;-82
2021/08/01 04:46:02;;;;;;;15.48;10.93;;;;;;;18.90;79.59;99871.39;1469789;88;21494;-82
2021/08/01 04:48:30;;;;;;;11.93;10.68;;;;;;;18.96;79.44;99875.08;1461885;88;21676;-81
2021/08/01 04:50:56;;;;;;;12.95;10.68;;;;;;;19.05;79.74;99872.46;1464935;88;21723;-81
2021/08/01 04:53:22;;;;;;;10.70;9.28;;;;;;;19.10;79.95;99876.63;1468869;88;23485;-81
2021/08/01 04:55:49;;;;;;;11.20;10.10;;;;;;;19.14;80.19;99876.52;1451724;88;21754;-81
2021/08/01 04:58:15;;;;;;;12.07;9.90;;;;;;;19.18;79.78;99875.56;1475821;88;21665;-80
2021/08/01 05:00:42;;;;;;;11.73;10.58;;;;;;;19.29;79.60;99870.31;1473391;87;21538;-81
2021/08/01 05:03:08;;;;;;;11.75;10.40;;;;;;;19.36;79.62;99876.95;1461962;88;21753;-80
2021/08/01 05:05:37;;;;;;;12.28;10.98;;;;;;;19.48;79.58;99871.70;1465968;88;21695;-81
2021/08/01 05:08:04;;;;;;;14.15;9.98;;;;;;;19.59;79.39;99864.28;1464913;88;21471;-82
2021/08/01 05:10:31;;;;;;;11.48;10.08;;;;;;;19.70;79.40;99852.85;1461502;88;21466;-81
2021/08/01 05:12:57;;;;;;;15.13;12.47;;;;;;;19.80;79.10;99853.18;1474339;88;21633;-81
2021/08/01 05:15:24;;;;;;;14.10;12.63;;;;;;;19.88;78.78;99848.55;1461216;88;22523;-81
2021/08/01 05:17:50;;;;;;;15.00;12.55;;;;;;;19.93;78.93;99856.77;1477399;88;21706;-81
2021/08/01 05:20:17;;;;;;;13.78;11.18;;;;;;;20.01;78.57;99865.88;1465354;88;21664;-81
2021/08/01 05:22:44;;;;;;;14.55;12.25;;;;;;;19.92;78.53;99864.00;1460676;88;21536;-81
2021/08/01 05:25:11;;;;;;;13.58;11.97;;;;;;;19.94;78.59;99862.42;1461210;88;21613;-82
2021/08/01 05:27:37;;;;;;;14.05;12.43;;;;;;;20.03;78.55;99856.55;1465360;88;22873;-82
2021/08/01 05:30:04;;;;;;;13.85;12.45;;;;;;;20.14;78.57;99850.97;1478564;88;22269;-82
2021/08/01 05:32:33;;;;;;;12.98;11.65;;;;;;;20.28;78.51;99853.80;1458474;88;21532;-82
2021/08/01 05:35:00;;;;;;;13.40;12.10;;;;;;;20.46;78.41;99861.54;1456269;88;22486;-82
2021/08/01 05:37:27;;;;;;;14.43;12.93;;;;;;;20.61;78.06;99864.67;1473391;88;21514;-81
2021/08/01 05:39:53;;;;;;;18.32;12.55;;;;;;;20.76;77.58;99856.73;1471778;88;21566;-82
2021/08/01 05:42:19;;;;;;;14.10;11.63;;;;;;;20.88;77.42;99853.55;1467001;88;21620;-82
2021/08/01 05:44:45;;;;;;;12.90;10.13;;;;;;;21.04;77.43;99856.13;1433366;89;21710;-81
2021/08/01 05:47:12;;;;;;;12.50;11.30;;;;;;;21.15;77.17;99852.11;1462439;88;21470;-81
2021/08/01 05:49:38;;;;;;;14.05;9.48;;;;;;;21.32;77.02;99848.72;1458264;88;21633;-81
2021/08/01 05:52:04;;;;;;;12.60;11.43;;;;;;;21.49;76.91;99852.93;1471875;88;21633;-81
2021/08/01 05:54:30;;;;;;;20.10;10.40;;;;;;;21.66;76.50;99854.41;1467557;88;22373;-81
2021/08/01 05:56:57;;;;;;;18.92;11.93;;;;;;;21.84;76.17;99852.95;1470018;88;21651;-81
2021/08/01 05:59:23;;;;;;;15.78;11.45;;;;;;;22.01;75.95;99845.78;1480187;88;21485;-81
2021/08/01 06:01:50;;;;;;;16.62;10.38;;;;;;;22.17;75.74;99828.58;1464307;88;22985;-81
2021/08/01 06:04:16;;;;;;;12.68;9.93;;;;;;;22.27;75.35;99814.01;1465369;88;21651;-81
2021/08/01 06:06:42;;;;;;;15.40;9.93;;;;;;;22.50;75.27;99825.23;1443106;89;21523;-81
2021/08/01 06:09:09;;;;;;;10.68;9.60;;;;;;;22.67;74.64;99823.91;1462914;88;22818;-83
2021/08/01 06:11:35;;;;;;;16.62;10.30;;;;;;;22.84;74.36;99826.11;1458500;88;22582;-83
2021/08/01 06:14:01;;;;;;;11.65;9.98;;;;;;;23.01;73.64;99830.75;1459595;88;21545;-87
2021/08/01 06:16:27;;;;;;;15.23;10.45;;;;;;;23.18;73.27;99835.63;1467329;88;21633;-86
2021/08/01 06:18:54;;;;;;;10.85;8.93;;;;;;;23.35;72.98;99848.59;1470917;87;21499;-83
2021/08/01 06:21:20;;;;;;;10.43;8.90;;;;;;;23.52;72.21;99850.48;1450144;88;21633;-82
2021/08/01 06:23:50;;;;;;;10.20;9.10;;;;;;;23.64;72.07;99851.20;1427653;87;21430;-85
2021/08/01 06:26:19;;;;;;;15.60;8.28;;;;;;;23.81;71.78;99842.56;1442408;88;21459;-84
2021/08/01 06:28:46;;;;;;;16.23;9.95;;;;;;;24.01;71.12;99834.45;1454674;88;21496;-83
2021/08/01 06:31:12;;;;;;;11.45;9.10;;;;;;;24.20;70.80;99829.02;1472677;88;21677;-83
2021/08/01 06:33:39;;;;;;;9.23;8.30;;;;;;;24.40;70.18;99837.91;1465966;88;21700;-83
2021/08/01 06:36:11;;;;;;;11.83;8.75;;;;;;;24.56;69.73;99836.22;1453710;88;21437;-83
2021/08/01 06:38:39;;;;;;;16.25;9.58;;;;;;;24.68;69.09;99843.64;1458916;88;21880;-84
2021/08/01 06:41:06;;;;;;;10.45;7.87;;;;;;;24.70;68.59;99844.20;1464362;88;23401;-84
2021/08/01 06:43:34;;;;;;;11.15;8.55;;;;;;;24.70;68.22;99840.16;1464362;88;22516;-84
2021/08/01 06:46:01;;;;;;;9.13;7.55;;;;;;;24.76;68.01;99848.59;1460926;88;21752;-84
2021/08/01 06:48:27;;;;;;;17.12;7.10;;;;;;;24.89;67.77;99850.63;1470446;88;22082;-84
2021/08/01 06:50:54;;;;;;;9.88;6.83;;;;;;;25.07;67.49;99844.84;1472093;88;21773;-83
2021/08/01 06:53:20;;;;;;;11.10;7.10;;;;;;;25.21;66.60;99848.78;1452986;88;22486;-84
2021/08/01 06:55:46;;;;;;;14.43;8.63;;;;;;;25.30;65.87;99845.06;1458291;88;21629;-85
2021/08/01 06:58:19;;;;;;;10.55;7.95;;;;;;;25.30;65.24;99837.48;1457144;88;21599;-84
2021/08/01 07:00:50;;;;;;;9.55;8.05;;;;;;;25.21;64.81;99821.70;1455187;88;21382;-86
2021/08/01 07:03:16;;;;;;;9.38;7.25;;;;;;;25.11;65.30;99816.16;1460225;88;21538;-85
2021/08/01 07:05:43;;;;;;;9.58;6.75;;;;;;;25.06;65.71;99824.27;1452007;88;21511;-86
2021/08/01 07:08:09;;;;;;;10.72;6.40;;;;;;;25.09;65.37;99824.26;1468630;88;21767;-85
2021/08/01 07:10:36;;;;;;;7.47;6.75;;;;;;;25.20;65.10;99817.89;1466751;88;21507;-85
2021/08/01 07:13:08;;;;;;;11.35;7.28;;;;;;;25.38;64.88;99828.34;1453459;88;21526;-85
2021/08/01 07:15:35;;;;;;;12.10;7.47;;;;;;;25.56;64.17;99823.03;1466099;88;21456;-86
2021/08/01 07:18:02;;;;;;;13.88;6.87;;;;;;;25.81;63.83;99814.25;1461270;88;21685;-85
2021/08/01 07:20:29;;;;;;;16.45;6.97;;;;;;;26.08;63.29;99814.66;1468132;88;21647;-85
2021/08/01 07:22:56;;;;;;;9.38;6.90;;;;;;;26.34;62.74;99800.10;1473327;88;22513;-84
2021/08/01 07:25:24;;;;;;;9.28;7.08;;;;;;;26.48;62.00;99799.06;1454462;88;21488;-85
2021/08/01 07:27:54;;;;;;;13.22;6.67;;;;;;;26.48;61.57;99788.20;1459419;88;21559;-85
2021/08/01 07:30:21;;;;;;;14.38;6.42;;;;;;;26.38;61.15;99779.22;1454164;88;21575;-83
2021/08/01 07:32:48;;;;;;;8.90;6.87;;;;;;;26.31;61.21;99782.20;1461435;88;21545;-85
2021/08/01 07:35:14;;;;;;;10.82;6.80;;;;;;;26.29;61.29;99776.22;1479155;88;22001;-82
2021/08/01 07:37:40;;;;;;;11.22;6.72;;;;;;;26.26;61.14;99775.40;1433068;88;21405;-84
2021/08/01 07:40:07;;;;;;;6.20;5.60;;;;;;;26.23;61.32;99773.22;1431820;88;21501;-81
2021/08/01 07:42:33;;;;;;;12.28;7.03;;;;;;;26.17;60.99;99776.45;1453144;88;21555;-88
2021/08/01 07:45:04;;;;;;;8.53;6.33;;;;;;;26.16;61.00;99764.53;1459721;88;21628;-90
2021/08/01 07:47:33;;;;;;;9.85;6.85;;;;;;;26.16;61.03;99764.53;1461656;88;22321;-87
2021/08/01 07:50:00;;;;;;;7.33;6.42;;;;;;;26.08;61.05;99763.95;1473576;88;21607;-89
2021/08/01 07:52:26;;;;;;;9.25;6.92;;;;;;;26.06;61.21;99759.88;1472666;88;22373;-89
2021/08/01 07:54:52;;;;;;;10.82;6.20;;;;;;;25.99;61.20;99753.36;1459857;88;21486;-90
2021/08/01 07:57:29;;;;;;;14.50;7.30;;;;;;;25.96;61.07;99753.08;1442679;88;22465;-90
2021/08/01 07:59:58;;;;;;;11.08;6.70;;;;;;;25.96;61.45;99754.44;1453449;88;21628;-89
2021/08/01 08:02:25;;;;;;;9.35;5.92;;;;;;;25.90;61.56;99741.40;1464952;87;22412;-89
2021/08/01 08:04:53;;;;;;;10.20;6.35;;;;;;;25.87;61.66;99737.87;1473206;87;22277;-90
2021/08/01 08:07:20;;;;;;;10.38;6.70;;;;;;;25.96;61.78;99734.91;1440568;88;21515;-89
2021/08/01 08:09:46;;;;;;;8.25;6.08;;;;;;;26.11;61.76;99729.53;1457398;88;21699;-88
2021/08/01 08:12:13;;;;;;;7.58;6.30;;;;;;;26.36;61.54;99715.76;1457633;87;22479;-89
2021/08/01 08:14:39;;;;;;;9.98;6.30;;;;;;;26.62;61.18;99715.82;1458023;88;21508;-86
2021/08/01 08:17:06;;;;;;;10.18;6.37;;;;;;;26.85;60.55;99717.98;1447494;88;21615;-86
2021/08/01 08:19:33;;;;;;;8.88;6.10;;;;;;;27.09;60.25;99721.48;1450480;88;21589;-86
2021/08/01 08:21:59;;;;;;;11.15;7.10;;;;;;;27.28;59.17;99717.14;1465760;88;21507;-89
2021/08/01 08:24:27;;;;;;;7.67;5.90;;;;;;;27.47;58.67;99712.45;1462380;88;22745;-88
2021/08/01 08:26:54;;;;;;;11.68;6.17;;;;;;;27.66;58.67;99709.41;1454955;88;21574;-86
2021/08/01 08:29:23;;;;;;;7.33;5.97;;;;;;;27.85;57.53;99721.84;1449267;88;21671;-87
2021/08/01 08:31:52;;;;;;;8.70;6.40;;;;;;;27.97;56.69;99716.10;1461394;88;21575;-85
2021/08/01 08:34:22;;;;;;;10.20;6.53;;;;;;;28.04;56.49;99707.88;1461182;87;21640;-85
2021/08/01 08:36:54;;;;;;;10.68;7.37;;;;;;;28.16;57.05;99706.17;1447826;88;22201;-90
2021/08/01 08:39:23;;;;;;;11.12;7.42;;;;;;;28.16;54.82;99695.30;1436417;89;23493;-88
2021/08/01 08:41:50;;;;;;;10.00;6.37;;;;;;;28.31;55.84;99693.86;1461430;88;21658;-85
2021/08/01 08:44:17;;;;;;;9.30;6.08;;;;;;;28.35;55.52;99705.78;1453777;87;23325;-87
2021/08/01 08:46:44;;;;;;;8.83;5.83;;;;;;;28.39;54.60;99707.94;1423373;91;21667;-87
2021/08/01 08:49:13;;;;;;;11.83;6.28;;;;;;;28.53;55.15;99718.48;1445872;90;21538;-87
2021/08/01 08:51:45;;;;;;;21.73;7.53;;;;;;;28.56;54.53;99716.00;1434447;91;21488;-87
2021/08/01 08:54:15;;;;;;;25.70;6.72;;;;;;;28.63;53.74;99712.97;1456291;87;21606;-87
2021/08/01 08:56:41;;;;;;;;;;;;;;;28.76;53.89;99718.30;1455275;88;21444;-86
2021/08/01 08:59:21;;;;;;;10.95;6.25;;;;;;;28.90;54.06;99715.73;1459977;88;20231;-87
2021/08/01 09:01:47;;;;;;;13.90;6.12;;;;;;;29.04;53.53;99705.82;1470294;88;21544;-88
2021/08/01 09:04:17;;;;;;;9.10;6.40;;;;;;;29.16;53.18;99709.52;1407238;91;21693;-86
2021/08/01 09:06:44;;;;;;;7.83;6.30;;;;;;;29.28;52.81;99695.49;1424855;89;21644;-86
2021/08/01 09:09:13;;;;;;;9.80;6.22;;;;;;;29.38;53.02;99703.56;1437620;89;21666;-88
2021/08/01 09:11:40;;;;;;;7.30;5.92;;;;;;;29.41;52.63;99692.08;1439280;89;21695;-87
2021/08/01 09:14:20;;;;;;;7.75;5.75;;;;;;;29.60;52.20;99697.00;1431149;90;21497;-86
2021/08/01 09:16:50;;;;;;;9.65;5.90;;;;;;;29.78;52.16;99693.27;1463223;88;21510;-89
2021/08/01 09:19:46;;;;;;;9.15;6.47;;;;;;;29.97;50.89;99681.03;1463068;88;21980;-84
2021/08/01 09:22:17;;;;;;;8.18;6.20;;;;;;;30.11;50.18;99684.08;1419364;91;22025;-86
2021/08/01 09:24:52;;;;;;;11.50;6.10;;;;;;;30.23;50.42;99686.39;1450696;88;21530;-87
2021/08/01 09:27:32;;;;;;;23.38;6.65;;;;;;;30.29;50.16;99673.48;1457274;88;21430;-90
2021/08/01 09:29:59;;;;;;;7.25;5.80;;;;;;;30.42;50.52;99669.20;1449149;88;21516;-88
2021/08/01 09:32:29;;;;;;;7.87;5.67;;;;;;;30.42;50.12;99668.64;1448600;87;21671;-88
2021/08/01 09:34:55;;;;;;;10.23;6.05;;;;;;;30.33;50.18;99677.25;1438414;88;21548;-87
2021/08/01 09:37:34;;;;;;;9.13;6.37;;;;;;;30.24;50.37;99674.91;1490335;87;21384;-85
2021/08/01 09:40:14;;;;;;;6.70;6.00;;;;;;;30.00;50.29;99664.88;1452082;87;21385;-87
2021/08/01 09:42:43;;;;;;;9.03;5.95;;;;;;;29.89;50.25;99656.05;1437390;87;21595;-86
2021/08/01 09:45:18;;;;;;;6.17;5.58;;;;;;;29.82;51.05;99650.13;1407606;87;21403;-88
2021/08/01 09:47:46;;;;;;;6.30;5.65;;;;;;;29.77;50.94;99649.39;1481200;87;21575;-86
2021/08/01 09:50:15;;;;;;;6.75;5.47;;;;;;;29.69;51.15;99641.30;1445251;87;21434;-86
2021/08/01 09:52:42;;;;;;;10.18;5.53;;;;;;;29.56;50.82;99629.75;1438283;87;21375;-88
2021/08/01 09:55:24;;;;;;;7.95;6.03;;;;;;;29.50;51.32;99620.02;1421658;90;21508;-86
2021/08/01 09:57:58;;;;;;;7.75;5.97;;;;;;;29.45;51.76;99633.95;1397539;91;21435;-89
2021/08/01 10:00:25;;;;;;;12.55;6.25;;;;;;;29.40;51.46;99638.09;1402615;90;21634;-86
2021/08/01 10:02:57;;;;;;;6.78;5.80;;;;;;;29.33;51.82;99629.48;1428844;88;21400;-88
2021/08/01 10:05:25;;;;;;;12.63;5.75;;;;;;;29.30;51.70;99627.34;1411072;90;21444;-86
2021/08/01 10:07:52;;;;;;;9.83;5.67;;;;;;;29.35;52.12;99629.20;1465713;88;21419;-86
2021/08/01 10:10:26;;;;;;;6.92;5.47;;;;;;;29.39;52.08;99629.67;1441203;88;21501;-86
2021/08/01 10:12:58;;;;;;;8.53;5.85;;;;;;;29.50;52.25;99642.63;1447320;88;21416;-86
2021/08/01 10:15:28;;;;;;;7.55;5.55;;;;;;;29.55;52.23;99665.74;1434494;88;21511;-86
2021/08/01 10:17:54;;;;;;;6.10;5.33;;;;;;;29.50;51.07;99681.34;1413388;89;21458;-85
2021/08/01 10:20:21;;;;;;;8.05;5.10;;;;;;;29.40;51.01;99700.78;1458602;88;21406;-85
2021/08/01 10:22:51;;;;;;;6.35;5.70;;;;;;;29.24;50.98;99721.15;1450725;88;21555;-85
2021/08/01 10:25:28;;;;;;;6.78;5.50;;;;;;;29.07;51.74;99731.68;1450817;88;21554;-86
2021/08/01 10:27:57;;;;;;;7.95;6.42;;;;;;;28.89;52.06;99744.07;1464216;88;22571;-88
2021/08/01 10:30:27;;;;;;;10.20;5.83;;;;;;;28.71;52.95;99745.55;1457268;88;22579;-87
2021/08/01 10:33:04;;;;;;;8.08;5.70;;;;;;;28.59;53.59;99758.72;1451479;88;23377;-88
2021/08/01 10:35:32;;;;;;;11.68;5.40;;;;;;;28.41;54.38;99768.34;1468925;88;21485;-83
2021/08/01 10:38:03;;;;;;;11.08;6.20;;;;;;;28.26;54.23;99782.86;1446803;88;22491;-84
2021/08/01 10:40:34;;;;;;;12.73;6.37;;;;;;;28.04;54.48;99795.47;1463724;88;21525;-84
2021/08/01 10:43:05;;;;;;;9.58;5.90;;;;;;;27.83;55.46;99818.66;1460713;88;21511;-83
2021/08/01 10:45:32;;;;;;;10.65;6.97;;;;;;;27.58;56.87;99843.15;1454165;88;21993;-83
2021/08/01 10:47:59;;;;;;;12.03;6.25;;;;;;;27.39;56.96;99864.10;1454091;87;21665;-84
2021/08/01 10:50:29;;;;;;;18.48;7.03;;;;;;;27.13;57.88;99885.50;1449788;88;21655;-85
2021/08/01 10:53:25;;;;;;;16.45;8.28;;;;;;;26.69;61.37;99850.69;1443578;88;21854;-85
2021/08/01 10:56:15;;;;;;;17.42;7.17;;;;;;;26.17;64.24;99734.42;1452466;88;22517;-85
2021/08/01 10:58:43;;;;;;;11.08;7.55;;;;;;;25.60;66.92;99657.50;1476950;88;22536;-84
2021/08/01 11:01:10;;;;;;;11.78;8.00;;;;;;;25.44;67.52;99645.00;1469155;88;21602;-85
2021/08/01 11:03:39;;;;;;;11.35;7.30;;;;;;;25.32;70.13;99668.23;1447626;88;23358;-85
2021/08/01 11:06:08;;;;;;;17.77;7.47;;;;;;;25.35;68.26;99663.64;1454176;88;21644;-85
2021/08/01 11:08:39;;;;;;;10.95;6.60;;;;;;;25.45;69.88;99653.39;1468744;87;21590;-85
2021/08/01 11:11:16;;;;;;;9.63;7.08;;;;;;;25.70;70.36;99646.45;1457844;88;21713;-86
2021/08/01 11:13:46;;;;;;;9.65;6.03;;;;;;;25.97;69.89;99639.48;1521628;88;21435;-86
2021/08/01 11:16:14;;;;;;;;;;;;;;;26.21;68.63;99643.84;1499270;88;21560;-84
2021/08/01 11:18:44;;;;;;;16.20;7.83;;;;;;;26.19;67.60;99634.64;1462089;88;20826;-84
2021/08/01 11:21:12;;;;;;;10.40;6.75;;;;;;;26.21;68.37;99614.02;1468258;88;21508;-86
2021/08/01 11:23:50;;;;;;;10.63;7.25;;;;;;;26.43;67.64;99611.85;1434907;88;21688;-86
2021/08/01 11:26:18;;;;;;;10.88;7.60;;;;;;;26.52;67.70;99600.75;1456688;88;21500;-84
2021/08/01 11:29:08;;;;;;;9.68;6.55;;;;;;;26.70;66.37;99578.19;1481128;88;21420;-85
2021/08/01 11:31:34;;;;;;;8.00;5.22;;;;;;;26.63;65.73;99571.70;1467507;86;21419;-87
2021/08/01 11:34:21;;;;;;;12.58;7.03;;;;;;;26.57;64.79;99573.35;1492483;86;22850;-84
2021/08/01 11:37:17;;;;;;;9.23;6.75;;;;;;;26.81;65.12;99565.42;1429667;86;21429;-85
2021/08/01 11:39:58;;;;;;;10.30;6.30;;;;;;;26.88;64.55;99568.13;1483623;87;22382;-86
2021/08/01 11:42:28;;;;;;;10.18;6.05;;;;;;;27.04;64.63;99544.43;1477554;87;21651;-85